Time;durP1;ratioP1;P1;durP2;ratioP2;P2;SDS_P1;SDS_P2;PMS_P1;PMS_P2;Temp;Humidity;BMP_temperature;BMP_pressure;BME280_temperature;BME280_humidity;BME280_pressure;Samples;Min_cycle;Max_cycle;Signal;HPM_P1;HPM_P2
2022/08/03 00:01:26;;;;;;;14.77;5.07;;;19.30;99.90;;;;;;5112221;28;20054;-68
2022/08/03 00:03:52;;;;;;;15.18;4.15;;;19.30;99.90;;;;;;5110220;28;20048;-68
2022/08/03 00:06:19;;;;;;;14.52;5.38;;;19.30;99.90;;;;;;5095416;28;20417;-68
2022/08/03 00:08:46;;;;;;;12.25;4.32;;;19.20;99.90;;;;;;5113491;28;20161;-68
2022/08/03 00:11:13;;;;;;;13.65;5.43;;;19.30;99.90;;;;;;5114379;28;20047;-68
2022/08/03 00:13:40;;;;;;;11.70;4.07;;;19.20;99.90;;;;;;5110008;28;20075;-68
2022/08/03 00:16:07;;;;;;;11.43;4.60;;;19.20;99.90;;;;;;5097874;28;20047;-68
2022/08/03 00:18:34;;;;;;;11.70;4.18;;;19.10;99.90;;;;;;5113818;28;20436;-68
2022/08/03 00:21:01;;;;;;;17.85;5.03;;;19.10;99.90;;;;;;5115294;28;20056;-68
2022/08/03 00:23:28;;;;;;;12.50;4.63;;;19.10;99.90;;;;;;5092238;28;20048;-68
2022/08/03 00:26:15;;;;;;;13.48;4.05;;;19.10;99.90;;;;;;5104692;28;20047;-68
2022/08/03 00:28:42;;;;;;;13.77;4.78;;;19.10;99.90;;;;;;5113405;28;20058;-68
2022/08/03 00:31:09;;;;;;;12.77;4.32;;;19.10;99.90;;;;;;5107383;28;20050;-68
2022/08/03 00:33:39;;;;;;;13.45;5.07;;;19.00;99.90;;;;;;5107095;28;20056;-69
2022/08/03 00:36:26;;;;;;;17.13;5.65;;;19.00;99.90;;;;;;5101935;28;20104;-68
2022/08/03 00:38:54;;;;;;;13.20;5.32;;;18.90;99.90;;;;;;5110598;28;20043;-68
2022/08/03 00:41:21;;;;;;;21.55;5.32;;;18.90;99.90;;;;;;5115453;28;20047;-68
2022/08/03 00:43:48;;;;;;;11.20;4.57;;;18.90;99.90;;;;;;5108359;28;20071;-68
2022/08/03 00:46:15;;;;;;;14.30;5.68;;;18.90;99.90;;;;;;5098323;28;20044;-68
2022/08/03 00:48:50;;;;;;;13.95;5.40;;;18.90;99.90;;;;;;5113629;28;20434;-68
2022/08/03 00:51:18;;;;;;;14.55;5.18;;;18.90;99.90;;;;;;5085630;28;20131;-68
2022/08/03 00:53:45;;;;;;;16.10;5.68;;;18.90;99.90;;;;;;5113003;28;20514;-68
2022/08/03 00:56:14;;;;;;;14.73;4.72;;;18.80;99.90;;;;;;5115227;28;20051;-68
2022/08/03 00:58:40;;;;;;;14.97;6.83;;;18.80;99.90;;;;;;5113936;28;20105;-68
2022/08/03 01:01:07;;;;;;;14.18;4.75;;;18.70;99.90;;;;;;5113471;28;20044;-68
2022/08/03 01:03:34;;;;;;;14.10;4.55;;;18.70;99.90;;;;;;5114580;28;20521;-68
2022/08/03 01:06:13;;;;;;;13.05;6.03;;;18.70;99.90;;;;;;5113479;28;20052;-68
2022/08/03 01:08:52;;;;;;;16.40;5.25;;;18.70;99.90;;;;;;5113375;28;20055;-68
2022/08/03 01:11:37;;;;;;;13.45;5.10;;;18.70;99.90;;;;;;5113813;28;20051;-68
2022/08/03 01:14:29;;;;;;;18.08;5.75;;;18.70;99.90;;;;;;5113977;28;20047;-68
2022/08/03 01:16:59;;;;;;;11.50;4.47;;;18.70;99.90;;;;;;5113468;28;20040;-68
2022/08/03 01:19:31;;;;;;;16.23;6.10;;;18.70;99.90;;;;;;5113552;28;20051;-69
2022/08/03 01:22:07;;;;;;;16.70;6.57;;;18.60;99.90;;;;;;5113128;28;20044;-68
2022/08/03 01:24:41;;;;;;;12.52;5.68;;;18.60;99.90;;;;;;5114653;27;20044;-68
2022/08/03 01:27:29;;;;;;;14.00;6.35;;;18.60;99.90;;;;;;5113348;28;20051;-68
2022/08/03 01:30:01;;;;;;;14.55;5.60;;;18.60;99.90;;;;;;5112309;28;20059;-68
2022/08/03 01:32:47;;;;;;;19.95;8.13;;;18.60;99.90;;;;;;5092258;28;20052;-68
2022/08/03 01:35:45;;;;;;;18.95;8.73;;;18.60;99.90;;;;;;5095698;28;20048;-69
2022/08/03 01:38:24;;;;;;;15.15;6.53;;;18.50;99.90;;;;;;5113070;28;20146;-68
2022/08/03 01:40:55;;;;;;;14.23;6.78;;;18.50;99.90;;;;;;5096215;28;20132;-68
2022/08/03 01:43:26;;;;;;;12.95;7.45;;;18.50;99.90;;;;;;5095738;28;20063;-68
2022/08/03 01:46:13;;;;;;;18.63;7.88;;;18.50;99.90;;;;;;5099120;28;20494;-68
2022/08/03 01:48:41;;;;;;;14.15;8.77;;;18.50;99.90;;;;;;5095903;28;20043;-68
2022/08/03 01:51:08;;;;;;;13.40;7.85;;;18.50;99.90;;;;;;5095170;28;20172;-68
2022/08/03 01:53:36;;;;;;;18.50;8.77;;;18.50;99.90;;;;;;5112015;28;20040;-67
2022/08/03 01:56:03;;;;;;;20.20;10.25;;;18.40;99.90;;;;;;5112568;28;20494;-67
2022/08/03 01:58:30;;;;;;;20.63;11.00;;;18.40;99.90;;;;;;5092388;28;20055;-67
2022/08/03 02:00:59;;;;;;;16.92;8.82;;;18.40;99.90;;;;;;5075296;28;20064;-68
2022/08/03 02:03:29;;;;;;;;;;;18.40;99.90;;;;;;5092485;28;20055;-68
2022/08/03 02:05:56;;;;;;;23.42;11.20;;;18.30;99.90;;;;;;5091471;28;19927;-67
2022/08/03 02:08:44;;;;;;;21.08;11.07;;;18.30;99.90;;;;;;5078242;28;20097;-68
2022/08/03 02:11:11;;;;;;;16.33;10.60;;;18.30;99.90;;;;;;5109359;28;20044;-68
2022/08/03 02:13:38;;;;;;;19.17;11.77;;;18.30;99.90;;;;;;5095738;28;20047;-68
2022/08/03 02:16:05;;;;;;;17.10;10.80;;;18.30;99.90;;;;;;5096008;28;20047;-67
2022/08/03 02:18:32;;;;;;;24.10;12.00;;;18.30;99.90;;;;;;5112223;28;20052;-68
2022/08/03 02:21:03;;;;;;;19.85;11.57;;;18.40;99.90;;;;;;5095302;28;20051;-68
2022/08/03 02:23:37;;;;;;;17.65;11.60;;;18.40;99.90;;;;;;5111814;28;20050;-68
2022/08/03 02:26:04;;;;;;;17.48;11.38;;;18.50;99.90;;;;;;5112064;28;20162;-67
2022/08/03 02:28:36;;;;;;;18.98;11.55;;;18.60;99.90;;;;;;5112271;28;20043;-67
2022/08/03 02:31:04;;;;;;;18.65;10.40;;;18.60;99.90;;;;;;5095057;28;20051;-68
2022/08/03 02:33:42;;;;;;;18.60;10.23;;;18.70;99.90;;;;;;5094211;28;20521;-68
2022/08/03 02:36:10;;;;;;;16.95;9.48;;;18.80;99.90;;;;;;5095141;28;20051;-68
2022/08/03 02:38:39;;;;;;;18.27;10.20;;;18.80;99.90;;;;;;5084926;28;20509;-68
2022/08/03 02:41:06;;;;;;;;;;;18.90;99.90;;;;;;5092400;28;20055;-68
2022/08/03 02:43:34;;;;;;;12.65;8.88;;;18.90;99.90;;;;;;5078502;28;19969;-68
2022/08/03 02:46:23;;;;;;;17.30;10.25;;;18.90;99.90;;;;;;5097284;28;20040;-67
2022/08/03 02:48:50;;;;;;;15.95;8.98;;;19.00;99.90;;;;;;5074688;28;20394;-67
2022/08/03 02:51:18;;;;;;;20.90;9.38;;;19.00;99.90;;;;;;5099950;28;20097;-67
2022/08/03 02:53:45;;;;;;;11.50;7.35;;;19.00;99.90;;;;;;5109457;28;20054;-67
2022/08/03 02:56:12;;;;;;;24.98;7.72;;;19.00;99.90;;;;;;5110916;28;20047;-67
2022/08/03 02:58:41;;;;;;;15.80;6.15;;;19.10;99.90;;;;;;5109635;28;20476;-67
2022/08/03 03:01:08;;;;;;;17.17;8.00;;;19.10;99.90;;;;;;5093854;28;20510;-68
2022/08/03 03:03:35;;;;;;;11.40;6.15;;;19.10;99.90;;;;;;5094325;28;20047;-68
2022/08/03 03:06:10;;;;;;;7.88;5.18;;;19.20;99.90;;;;;;5110056;28;20040;-67
2022/08/03 03:08:38;;;;;;;13.57;6.45;;;19.20;99.90;;;;;;5111577;28;20080;-68
2022/08/03 03:11:04;;;;;;;13.20;5.65;;;19.20;99.90;;;;;;5107992;28;20050;-67
2022/08/03 03:13:31;;;;;;;11.90;5.28;;;19.20;99.90;;;;;;5111531;28;20040;-67
2022/08/03 03:16:02;;;;;;;11.80;6.38;;;19.20;99.90;;;;;;5105521;28;20052;-68
2022/08/03 03:18:33;;;;;;;16.83;6.80;;;19.20;99.90;;;;;;5099255;28;20051;-68
2022/08/03 03:21:00;;;;;;;10.90;6.10;;;19.20;99.90;;;;;;5115539;28;20052;-67
2022/08/03 03:23:27;;;;;;;15.20;5.93;;;19.20;99.90;;;;;;5106106;28;20067;-67
2022/08/03 03:25:55;;;;;;;8.38;4.97;;;19.30;99.90;;;;;;5119250;28;20044;-67
2022/08/03 03:28:23;;;;;;;11.82;5.50;;;19.30;99.90;;;;;;5118185;28;20087;-67
2022/08/03 03:30:50;;;;;;;13.23;6.35;;;19.20;99.90;;;;;;5118207;28;20183;-67
2022/08/03 03:33:19;;;;;;;15.70;7.00;;;19.30;99.90;;;;;;5098757;28;20052;-68
2022/08/03 03:35:47;;;;;;;17.30;7.13;;;19.20;99.90;;;;;;5096961;28;20080;-68
2022/08/03 03:38:14;;;;;;;15.82;7.15;;;19.20;99.90;;;;;;5097479;28;20280;-67
2022/08/03 03:40:41;;;;;;;15.32;8.50;;;19.30;99.90;;;;;;5100102;28;20055;-67
2022/08/03 03:43:09;;;;;;;13.02;7.55;;;19.20;99.90;;;;;;5080918;28;20491;-67
2022/08/03 03:45:36;;;;;;;10.27;7.00;;;19.20;99.90;;;;;;5118212;28;20048;-67
2022/08/03 03:48:03;;;;;;;17.98;8.90;;;19.20;99.90;;;;;;5118783;27;20055;-67
2022/08/03 03:50:31;;;;;;;18.73;9.13;;;19.30;99.90;;;;;;5117542;28;20051;-67
2022/08/03 03:52:58;;;;;;;14.07;8.15;;;19.30;99.90;;;;;;5117550;28;20059;-67
2022/08/03 03:55:25;;;;;;;10.50;7.68;;;19.30;99.90;;;;;;5118166;28;20043;-67
2022/08/03 03:57:51;;;;;;;11.25;8.25;;;19.30;99.90;;;;;;5117972;28;20051;-67
2022/08/03 04:00:18;;;;;;;15.25;8.82;;;19.30;99.90;;;;;;5117358;28;20052;-67
2022/08/03 04:02:45;;;;;;;13.30;6.65;;;19.30;99.90;;;;;;5118670;28;20043;-67
2022/08/03 04:11:05;;;;;;;11.02;7.00;;;19.30;99.90;;;;;;5067076;28;20055;-68
2022/08/03 04:13:35;;;;;;;9.57;7.13;;;19.30;99.90;;;;;;5119271;27;20055;-67
2022/08/03 04:16:02;;;;;;;14.00;6.88;;;19.40;99.90;;;;;;5100969;28;20047;-68
2022/08/03 04:18:30;;;;;;;9.20;5.65;;;19.40;99.90;;;;;;5117326;28;20499;-67
2022/08/03 04:21:00;;;;;;;11.57;6.80;;;19.40;99.90;;;;;;5084100;28;20144;-67
2022/08/03 04:23:27;;;;;;;20.40;7.45;;;19.40;99.90;;;;;;5117472;28;20062;-67
2022/08/03 04:25:54;;;;;;;12.00;6.72;;;19.40;99.90;;;;;;5117736;28;20055;-67
2022/08/03 04:28:21;;;;;;;11.90;6.80;;;19.40;99.90;;;;;;5116702;28;20047;-67
2022/08/03 04:30:58;;;;;;;12.00;6.80;;;19.30;99.90;;;;;;5098352;28;20047;-68
2022/08/03 04:33:25;;;;;;;15.65;7.60;;;19.40;99.90;;;;;;5077161;28;20056;-68
2022/08/03 04:35:57;;;;;;;11.95;6.57;;;19.40;99.90;;;;;;5077708;28;20475;-68
2022/08/03 04:38:30;;;;;;;10.10;6.78;;;19.40;99.90;;;;;;5093729;28;20051;-68
2022/08/03 04:40:57;;;;;;;11.98;7.25;;;19.40;99.90;;;;;;5094034;28;20402;-68
2022/08/03 04:43:24;;;;;;;14.10;7.93;;;19.40;99.90;;;;;;5107901;28;20040;-68
2022/08/03 04:45:51;;;;;;;15.77;8.48;;;19.40;99.90;;;;;;5097348;28;20047;-68
2022/08/03 04:48:18;;;;;;;10.98;7.28;;;19.40;99.90;;;;;;5113929;28;20044;-68
2022/08/03 04:50:46;;;;;;;10.55;7.53;;;19.40;99.90;;;;;;5113423;28;20052;-68
2022/08/03 04:53:12;;;;;;;14.63;8.32;;;19.40;99.90;;;;;;5113039;28;20051;-68
2022/08/03 04:55:39;;;;;;;13.38;7.75;;;19.40;99.90;;;;;;5115166;28;20052;-68
2022/08/03 04:58:06;;;;;;;15.02;8.75;;;19.40;99.90;;;;;;5114830;28;20048;-68
2022/08/03 05:00:33;;;;;;;11.82;8.10;;;19.40;99.90;;;;;;5114511;28;20074;-68
2022/08/03 05:03:00;;;;;;;13.07;8.30;;;19.40;99.90;;;;;;5097341;28;20399;-68
2022/08/03 05:05:27;;;;;;;17.90;10.23;;;19.40;99.90;;;;;;5108465;28;20482;-68
2022/08/03 05:08:14;;;;;;;18.80;10.18;;;19.40;99.90;;;;;;5112115;28;20498;-68
2022/08/03 05:10:40;;;;;;;14.45;9.45;;;19.40;99.90;;;;;;5113017;28;20047;-67
2022/08/03 05:13:11;;;;;;;12.73;9.07;;;19.40;99.90;;;;;;5107799;28;20058;-67
2022/08/03 05:15:38;;;;;;;16.45;10.13;;;19.40;99.90;;;;;;5099017;28;20050;-67
2022/08/03 05:18:09;;;;;;;15.50;10.32;;;19.50;99.90;;;;;;5109666;28;20062;-68
2022/08/03 05:20:40;;;;;;;12.68;9.43;;;19.50;99.90;;;;;;5096135;28;20543;-68
2022/08/03 05:23:07;;;;;;;13.68;9.88;;;19.50;99.90;;;;;;5112350;28;20063;-68
2022/08/03 05:25:34;;;;;;;13.52;9.77;;;19.50;99.90;;;;;;5094780;28;20050;-68
2022/08/03 05:28:00;;;;;;;15.13;9.35;;;19.50;99.90;;;;;;5113329;28;20437;-68
2022/08/03 05:30:27;;;;;;;12.10;9.20;;;19.50;99.90;;;;;;5111668;28;20051;-66
2022/08/03 05:33:01;;;;;;;13.68;9.88;;;19.50;99.90;;;;;;5109154;28;20475;-66
2022/08/03 05:35:28;;;;;;;12.73;8.88;;;19.50;99.90;;;;;;5100534;28;20039;-66
2022/08/03 05:38:16;;;;;;;17.40;9.10;;;19.60;99.90;;;;;;5108137;28;20100;-68
2022/08/03 05:40:55;;;;;;;13.98;8.90;;;19.60;99.90;;;;;;5108678;28;20056;-69
2022/08/03 05:43:43;;;;;;;25.58;20.90;;;19.60;99.90;;;;;;5109603;28;20048;-68
2022/08/03 05:46:10;;;;;;;19.30;9.82;;;19.70;99.90;;;;;;5107689;28;20410;-66
2022/08/03 05:48:39;;;;;;;18.65;8.88;;;19.70;99.90;;;;;;5112809;28;20043;-73
2022/08/03 05:51:06;;;;;;;11.38;8.73;;;19.70;99.90;;;;;;5095797;28;20103;-73
2022/08/03 05:53:33;;;;;;;13.48;8.10;;;19.80;99.90;;;;;;5106817;28;20154;-65
2022/08/03 05:56:00;;;;;;;14.18;8.60;;;19.80;99.90;;;;;;5099094;28;20051;-66
2022/08/03 05:58:42;;;;;;;12.95;7.60;;;19.90;99.90;;;;;;5111470;28;20055;-67
2022/08/03 06:01:09;;;;;;;19.02;15.50;;;19.90;99.90;;;;;;5109785;28;20138;-66
2022/08/03 06:03:36;;;;;;;18.92;12.80;;;20.00;99.90;;;;;;5108750;28;20105;-67
2022/08/03 06:06:03;;;;;;;15.02;7.55;;;20.00;99.90;;;;;;5108477;28;20059;-66
2022/08/03 06:08:30;;;;;;;15.70;8.45;;;20.10;99.90;;;;;;5111795;28;20474;-56
2022/08/03 06:10:57;;;;;;;12.55;8.13;;;20.10;99.90;;;;;;5111040;28;20044;-57
2022/08/03 06:13:24;;;;;;;10.73;6.55;;;20.20;99.90;;;;;;5113601;28;20066;-53
2022/08/03 06:15:51;;;;;;;12.85;7.40;;;20.30;99.90;;;;;;5101940;28;20400;-53
2022/08/03 06:18:17;;;;;;;14.88;8.07;;;20.30;99.90;;;;;;5111006;28;20487;-52
2022/08/03 06:20:44;;;;;;;8.65;6.72;;;20.30;99.90;;;;;;5113064;28;20043;-50
2022/08/03 06:23:15;;;;;;;10.82;6.50;;;20.40;99.90;;;;;;5107391;28;20063;-54
2022/08/03 06:25:44;;;;;;;8.60;5.72;;;20.40;99.90;;;;;;5107133;28;20442;-54
2022/08/03 06:28:12;;;;;;;9.13;5.47;;;20.50;99.90;;;;;;5112034;28;20078;-55
2022/08/03 06:31:00;;;;;;;9.02;5.47;;;20.60;99.90;;;;;;5112867;28;20054;-51
2022/08/03 06:33:27;;;;;;;9.23;4.88;;;20.70;99.90;;;;;;5103196;28;20410;-54
2022/08/03 06:36:14;;;;;;;9.77;4.93;;;20.70;99.90;;;;;;5092077;28;20051;-64
2022/08/03 06:38:41;;;;;;;26.80;22.20;;;20.80;99.90;;;;;;5107059;28;20071;-64
2022/08/03 06:41:08;;;;;;;13.50;7.25;;;20.80;99.90;;;;;;5110151;28;20054;-65
2022/08/03 06:43:36;;;;;;;7.85;5.15;;;21.00;99.90;;;;;;5110634;28;20108;-64
2022/08/03 06:46:04;;;;;;;5.57;4.00;;;21.10;99.90;;;;;;5099945;28;20094;-64
2022/08/03 06:48:31;;;;;;;8.93;3.80;;;21.20;99.90;;;;;;5091236;28;20055;-65
2022/08/03 06:50:58;;;;;;;7.85;3.90;;;21.30;99.90;;;;;;5087605;28;20043;-66
2022/08/03 06:53:25;;;;;;;9.65;4.35;;;21.30;99.90;;;;;;5106334;28;20051;-67
2022/08/03 06:55:52;;;;;;;7.90;3.72;;;21.30;99.90;;;;;;5076766;28;20051;-65
2022/08/03 06:58:21;;;;;;;8.82;4.18;;;21.30;99.90;;;;;;5106166;28;20123;-67
2022/08/03 07:00:48;;;;;;;9.43;5.88;;;21.30;99.90;;;;;;5111659;28;20052;-70
2022/08/03 07:03:15;;;;;;;11.48;4.63;;;21.40;99.90;;;;;;5104607;28;20139;-76
2022/08/03 07:05:42;;;;;;;4.00;2.60;;;21.40;99.90;;;;;;5100253;28;20050;-72
2022/08/03 07:08:09;;;;;;;4.32;3.28;;;21.50;99.90;;;;;;5094230;28;20090;-73
2022/08/03 07:10:36;;;;;;;6.07;3.10;;;21.50;99.90;;;;;;5104188;28;20075;-76
2022/08/03 07:13:04;;;;;;;5.90;2.70;;;21.50;99.90;;;;;;5074770;28;20047;-75
2022/08/03 07:15:31;;;;;;;4.10;2.92;;;21.50;99.90;;;;;;5084990;28;20043;-74
2022/08/03 07:18:18;;;;;;;5.20;3.63;;;21.50;99.90;;;;;;5110482;28;20096;-75
2022/08/03 07:20:56;;;;;;;6.70;3.15;;;21.60;99.90;;;;;;5095757;28;20050;-74
2022/08/03 07:23:24;;;;;;;8.43;4.05;;;21.70;99.90;;;;;;5110995;28;20055;-73
2022/08/03 07:25:51;;;;;;;3.42;2.65;;;21.70;99.90;;;;;;5096723;28;20056;-75
2022/08/03 07:28:19;;;;;;;8.52;2.97;;;21.80;99.90;;;;;;5072204;28;20131;-70
2022/08/03 07:30:46;;;;;;;7.10;2.85;;;21.90;99.90;;;;;;5090229;28;20048;-71
2022/08/03 07:33:13;;;;;;;4.05;2.60;;;22.00;99.90;;;;;;5099409;28;20052;-71
2022/08/03 07:35:40;;;;;;;7.85;3.10;;;22.10;99.90;;;;;;5106176;28;20043;-70
2022/08/03 07:38:06;;;;;;;5.70;3.10;;;22.10;99.90;;;;;;5104391;28;20036;-72
2022/08/03 07:40:33;;;;;;;4.78;3.28;;;22.10;99.90;;;;;;5090642;28;20048;-74
2022/08/03 07:43:02;;;;;;;5.50;2.97;;;22.20;99.90;;;;;;5090645;28;20131;-72
2022/08/03 07:45:30;;;;;;;3.97;2.80;;;22.30;99.90;;;;;;5108512;28;20043;-74
2022/08/03 07:47:57;;;;;;;7.88;3.83;;;22.40;99.90;;;;;;5092102;28;20052;-77
2022/08/03 07:50:24;;;;;;;4.32;3.13;;;22.30;99.90;;;;;;5094691;28;20047;-68
2022/08/03 07:52:52;;;;;;;5.78;3.17;;;22.20;99.90;;;;;;5099305;28;20048;-75
2022/08/03 07:55:21;;;;;;;4.40;2.80;;;22.20;99.90;;;;;;5111130;28;20050;-69
2022/08/03 07:57:59;;;;;;;7.57;3.80;;;22.10;99.90;;;;;;5098788;28;20524;-71
2022/08/03 08:00:26;;;;;;;4.10;3.00;;;22.10;99.90;;;;;;5103615;28;20417;-71
2022/08/03 08:02:53;;;;;;;3.97;2.60;;;22.20;99.90;;;;;;5099090;28;20388;-71
2022/08/03 08:05:20;;;;;;;5.18;2.60;;;22.30;99.90;;;;;;5098357;28;20052;-66
2022/08/03 08:07:47;;;;;;;3.88;2.50;;;22.40;99.90;;;;;;5098199;28;20040;-66
2022/08/03 08:10:17;;;;;;;4.53;2.58;;;22.50;99.90;;;;;;5098411;28;20117;-65
2022/08/03 08:12:44;;;;;;;5.75;2.40;;;22.60;99.90;;;;;;5116185;28;20081;-65
2022/08/03 08:15:11;;;;;;;3.95;2.20;;;22.70;99.90;;;;;;5080390;28;20546;-66
2022/08/03 08:17:43;;;;;;;5.72;2.30;;;22.70;99.90;;;;;;5094090;28;20395;-65
2022/08/03 08:20:11;;;;;;;3.20;2.08;;;22.80;99.90;;;;;;5094066;28;20066;-66
2022/08/03 08:22:38;;;;;;;3.03;1.50;;;22.90;99.90;;;;;;5114008;28;20047;-65
2022/08/03 08:25:06;;;;;;;2.92;2.08;;;23.10;99.90;;;;;;5114607;28;20051;-67
2022/08/03 08:27:33;;;;;;;3.75;1.58;;;23.30;99.90;;;;;;5114319;28;20058;-66
2022/08/03 08:30:21;;;;;;;2.97;1.70;;;23.40;99.90;;;;;;5114507;28;20097;-65
2022/08/03 08:32:48;;;;;;;2.85;1.63;;;23.50;99.90;;;;;;5097016;28;20046;-65
2022/08/03 08:35:16;;;;;;;2.72;1.38;;;23.70;99.90;;;;;;5114283;28;20134;-66
2022/08/03 08:37:43;;;;;;;1.45;1.17;;;23.70;99.90;;;;;;5114134;28;20051;-66
2022/08/03 08:40:19;;;;;;;3.30;1.88;;;23.80;99.90;;;;;;5114368;28;20467;-66
2022/08/03 08:42:46;;;;;;;2.17;1.50;;;23.90;99.90;;;;;;5113720;28;20525;-66
2022/08/03 08:45:23;;;;;;;4.38;1.40;;;24.10;99.90;;;;;;5093049;28;20048;-65
2022/08/03 08:47:50;;;;;;;1.30;1.10;;;24.30;99.90;;;;;;5076988;28;20040;-66
2022/08/03 08:50:22;;;;;;;4.40;1.33;;;24.30;99.90;;;;;;5078699;28;20056;-65
2022/08/03 08:52:53;;;;;;;2.78;1.33;;;24.30;99.90;;;;;;5113933;28;20112;-66
2022/08/03 08:55:21;;;;;;;2.22;1.25;;;24.40;99.90;;;;;;5113726;28;20047;-67
2022/08/03 08:57:56;;;;;;;2.40;1.33;;;24.30;99.90;;;;;;5113628;28;20047;-66
2022/08/03 09:00:23;;;;;;;2.90;1.13;;;24.40;99.90;;;;;;5114110;28;20599;-65
2022/08/03 09:02:50;;;;;;;3.10;1.38;;;24.60;99.90;;;;;;5113745;28;20042;-66
2022/08/03 09:05:18;;;;;;;4.72;1.27;;;24.80;99.90;;;;;;5113729;28;20083;-65
2022/08/03 09:07:57;;;;;;;2.05;1.50;;;24.80;99.90;;;;;;5113424;28;20055;-66
2022/08/03 09:10:24;;;;;;;1.77;1.17;;;24.80;99.90;;;;;;5113254;28;20048;-65
2022/08/03 09:12:51;;;;;;;2.80;1.30;;;24.80;99.90;;;;;;5114870;28;20047;-66
2022/08/03 09:15:22;;;;;;;0.80;0.80;;;24.90;99.90;;;;;;5114182;28;20047;-66
2022/08/03 09:17:50;;;;;;;2.78;1.50;;;24.80;99.90;;;;;;5104162;28;20044;-66
2022/08/03 09:20:18;;;;;;;5.97;1.50;;;24.80;99.90;;;;;;5076765;28;20052;-66
2022/08/03 09:22:56;;;;;;;2.05;1.27;;;24.80;99.90;;;;;;5113358;28;20051;-65
2022/08/03 09:25:40;;;;;;;1.40;1.10;;;25.00;99.90;;;;;;5113254;28;20074;-65
2022/08/03 09:28:15;;;;;;;4.63;1.20;;;25.10;99.90;;;;;;5113171;28;20097;-66
2022/08/03 09:31:02;;;;;;;3.75;1.38;;;25.20;99.90;;;;;;5113389;28;20075;-67
2022/08/03 09:33:29;;;;;;;3.05;2.08;;;25.10;99.90;;;;;;5092597;28;20059;-66
2022/08/03 09:36:01;;;;;;;2.08;1.70;;;25.00;99.90;;;;;;5093291;28;20048;-66
2022/08/03 09:38:28;;;;;;;4.40;1.67;;;25.00;99.90;;;;;;5092910;28;20044;-67
2022/08/03 09:40:56;;;;;;;3.10;1.88;;;25.20;99.90;;;;;;5112998;28;20386;-68
2022/08/03 09:43:26;;;;;;;2.40;1.23;;;25.30;99.90;;;;;;5113933;28;20388;-66
2022/08/03 09:46:01;;;;;;;2.60;1.70;;;25.50;99.90;;;;;;5112999;28;20075;-65
2022/08/03 09:48:30;;;;;;;2.60;1.67;;;25.70;99.90;;;;;;5112527;28;20798;-66
2022/08/03 09:50:58;;;;;;;3.60;1.90;;;25.80;99.90;;;;;;5079507;28;20052;-66
2022/08/03 09:53:45;;;;;;;5.70;2.00;;;25.70;99.90;;;;;;5098725;28;20108;-66
2022/08/03 09:56:39;;;;;;;3.38;2.33;;;25.60;99.90;;;;;;5114002;28;20146;-66
2022/08/03 09:59:06;;;;;;;3.65;2.08;;;25.70;99.90;;;;;;5112633;28;20055;-66
2022/08/03 10:01:34;;;;;;;2.67;1.98;;;25.50;99.90;;;;;;5112685;28;20081;-66
2022/08/03 10:04:01;;;;;;;4.13;1.80;;;25.60;99.90;;;;;;5095879;28;20052;-66
2022/08/03 10:06:30;;;;;;;3.30;1.42;;;25.60;99.90;;;;;;5113139;28;20092;-66
2022/08/03 10:09:10;;;;;;;3.40;1.45;;;25.60;99.90;;;;;;5112309;28;20058;-66
2022/08/03 10:11:37;;;;;;;2.78;1.25;;;25.60;99.90;;;;;;5112221;28;20048;-65
2022/08/03 10:14:09;;;;;;;3.05;1.20;;;25.70;99.90;;;;;;5112574;28;20048;-66
2022/08/03 10:16:37;;;;;;;3.75;1.40;;;25.80;99.90;;;;;;5112104;28;20046;-66
2022/08/03 10:19:06;;;;;;;2.67;1.55;;;25.70;99.90;;;;;;5092381;28;20051;-67
2022/08/03 10:21:34;;;;;;;3.50;1.63;;;25.70;99.90;;;;;;5086158;28;20070;-66
2022/08/03 10:24:02;;;;;;;8.00;2.85;;;25.60;99.90;;;;;;5095207;28;20052;-65
2022/08/03 10:26:31;;;;;;;4.68;2.00;;;25.60;99.90;;;;;;5112030;28;20070;-66
2022/08/03 10:28:59;;;;;;;4.43;2.03;;;25.70;99.90;;;;;;5112170;28;20043;-65
2022/08/03 10:31:34;;;;;;;2.20;1.40;;;25.70;99.90;;;;;;5111194;28;20052;-66
2022/08/03 10:34:01;;;;;;;4.18;1.88;;;25.60;99.90;;;;;;5091133;28;20281;-66
2022/08/03 10:36:30;;;;;;;4.55;1.42;;;25.70;99.90;;;;;;5091305;28;20040;-65
2022/08/03 10:38:58;;;;;;;4.32;1.42;;;25.80;99.90;;;;;;5091374;28;20074;-66
2022/08/03 10:41:25;;;;;;;3.80;1.63;;;25.90;99.90;;;;;;5077834;28;20086;-67
2022/08/03 10:44:04;;;;;;;4.00;1.45;;;26.00;99.90;;;;;;5061414;28;20059;-66
2022/08/03 10:46:31;;;;;;;3.65;1.25;;;26.20;99.90;;;;;;5076246;28;20052;-66
2022/08/03 10:48:58;;;;;;;2.60;1.58;;;26.30;99.90;;;;;;5079122;28;20055;-69
2022/08/03 10:51:29;;;;;;;4.15;1.60;;;26.30;99.90;;;;;;5092999;28;20070;-68
2022/08/03 10:53:56;;;;;;;11.23;8.73;;;26.10;99.90;;;;;;5094134;28;20047;-65
2022/08/03 10:59:45;;;;;;;2.85;1.80;;;26.00;99.90;;;;;;5105147;28;20058;-67
2022/08/03 11:02:13;;;;;;;3.10;1.40;;;26.10;99.90;;;;;;5106352;28;20121;-74
2022/08/03 11:04:40;;;;;;;4.45;1.88;;;26.10;99.90;;;;;;5102005;28;20131;-71
2022/08/03 11:07:16;;;;;;;4.30;1.40;;;26.40;99.90;;;;;;5093709;28;20051;-72
2022/08/03 11:09:47;;;;;;;2.92;1.40;;;26.70;99.90;;;;;;5112702;28;20460;-77
2022/08/03 11:12:30;;;;;;;6.43;2.35;;;26.80;99.90;;;;;;5109592;28;20048;-76
2022/08/03 11:15:03;;;;;;;5.95;3.10;;;26.90;99.90;;;;;;5081870;28;20450;-74
2022/08/03 11:17:32;;;;;;;3.00;1.48;;;27.00;99.90;;;;;;5111533;28;20235;-77
2022/08/03 11:20:45;;;;;;;3.47;1.60;;;27.00;99.90;;;;;;5099306;28;20048;-78
2022/08/03 11:23:13;;;;;;;3.38;2.08;;;26.90;99.90;;;;;;5111408;28;20047;-77
2022/08/03 11:26:17;;;;;;;5.20;2.08;;;26.80;99.90;;;;;;5087219;28;20039;-77
2022/08/03 11:28:45;;;;;;;6.47;1.88;;;26.80;99.90;;;;;;5108898;28;20517;-82
2022/08/03 11:31:21;;;;;;;5.75;1.55;;;26.80;99.90;;;;;;5093726;28;20101;-78
2022/08/03 11:34:09;;;;;;;3.20;1.55;;;26.80;99.90;;;;;;5109113;28;20043;-67
2022/08/03 11:37:13;;;;;;;11.60;9.77;;;26.70;99.90;;;;;;5106608;28;20054;-66
2022/08/03 11:39:43;;;;;;;5.68;2.15;;;26.70;99.90;;;;;;5095593;28;20407;-68
2022/08/03 11:42:34;;;;;;;3.38;1.60;;;26.80;99.90;;;;;;5107438;28;20130;-67
2022/08/03 11:45:00;;;;;;;5.15;1.85;;;26.90;99.90;;;;;;5100599;28;20052;-67
2022/08/03 11:47:28;;;;;;;3.40;1.92;;;27.00;99.90;;;;;;5114658;28;20510;-67
2022/08/03 11:50:00;;;;;;;5.38;1.83;;;27.10;99.90;;;;;;5114732;28;20406;-67
2022/08/03 11:52:33;;;;;;;4.65;1.75;;;27.30;99.90;;;;;;5095972;28;20078;-66
2022/08/03 11:55:00;;;;;;;5.10;1.83;;;27.50;99.90;;;;;;5097961;28;20054;-68
2022/08/03 11:57:34;;;;;;;6.32;2.20;;;27.60;99.90;;;;;;5094614;28;20151;-67
2022/08/03 12:00:22;;;;;;;10.98;3.38;;;27.70;99.90;;;;;;5080709;28;20093;-72
2022/08/03 12:03:14;;;;;;;5.45;3.38;;;27.90;99.90;;;;;;5113915;28;20496;-69
2022/08/03 12:05:49;;;;;;;6.25;2.45;;;27.90;99.90;;;;;;5113867;28;20043;-67
2022/08/03 12:08:38;;;;;;;6.50;2.40;;;27.70;99.90;;;;;;5096023;28;20491;-67
2022/08/03 12:11:07;;;;;;;7.38;2.10;;;27.70;99.90;;;;;;5114557;28;20403;-67
2022/08/03 12:13:45;;;;;;;5.72;1.80;;;27.60;99.90;;;;;;5102142;28;20494;-67
2022/08/03 12:16:32;;;;;;;;;;;27.60;99.90;;;;;;5109040;28;20052;-67
2022/08/03 12:19:05;;;;;;;5.22;1.40;;;27.70;99.90;;;;;;5109273;27;19920;-67
2022/08/03 12:21:32;;;;;;;3.35;1.40;;;27.90;99.90;;;;;;5106792;28;20055;-67
2022/08/03 12:24:01;;;;;;;4.00;1.58;;;28.10;99.90;;;;;;5107959;28;20047;-67
2022/08/03 12:26:28;;;;;;;5.10;1.33;;;28.20;99.90;;;;;;5093701;28;20047;-67
2022/08/03 12:28:55;;;;;;;4.20;1.20;;;28.10;99.90;;;;;;5094028;28;20261;-67
2022/08/03 12:31:22;;;;;;;3.55;1.35;;;28.00;99.90;;;;;;5096614;28;20132;-68
2022/08/03 12:34:01;;;;;;;7.82;6.22;;;27.90;99.90;;;;;;5079427;28;20499;-67
2022/08/03 12:36:33;;;;;;;6.80;4.22;;;27.90;99.90;;;;;;5101516;28;20122;-71
2022/08/03 12:39:07;;;;;;;4.55;2.10;;;27.90;99.90;;;;;;5105580;28;20044;-69
2022/08/03 12:41:35;;;;;;;5.43;2.15;;;27.80;99.90;;;;;;5113356;28;20063;-69
2022/08/03 12:44:04;;;;;;;3.85;1.30;;;27.90;99.90;;;;;;5076341;28;20044;-68
2022/08/03 12:46:38;;;;;;;3.47;1.40;;;28.20;99.90;;;;;;5105265;28;20061;-70
2022/08/03 12:49:14;;;;;;;6.25;1.63;;;28.20;99.90;;;;;;5110009;28;20482;-69
2022/08/03 12:51:41;;;;;;;7.43;1.77;;;28.30;99.90;;;;;;5086089;28;20044;-70
2022/08/03 12:54:15;;;;;;;6.13;1.50;;;28.50;99.90;;;;;;5106869;28;20058;-69
2022/08/03 12:57:10;;;;;;;8.13;1.63;;;28.50;99.90;;;;;;5113736;28;20054;-72
2022/08/03 12:59:45;;;;;;;6.90;1.50;;;28.60;99.90;;;;;;5080931;28;20044;-69
2022/08/03 13:02:23;;;;;;;3.58;1.60;;;28.70;99.90;;;;;;5114117;28;20059;-69
2022/08/03 13:04:51;;;;;;;3.60;1.05;;;28.80;99.90;;;;;;5096440;28;20040;-69
2022/08/03 13:07:18;;;;;;;4.77;1.43;;;28.90;99.90;;;;;;5097537;28;20067;-68
2022/08/03 13:09:54;;;;;;;3.90;1.17;;;29.00;99.90;;;;;;5094638;28;20865;-68
2022/08/03 13:12:27;;;;;;;5.30;1.27;;;29.00;99.90;;;;;;5112621;28;20509;-68